sensor_id;sensor_type;location;lat;lon;timestamp;pressure;altitude;pressure_sealevel;temperature;humidity
29239;BME280;16267;48.194;11.546;2024-03-29T00:01:37;94701.41;;;5.32;79.95
29239;BME280;16267;48.194;11.546;2024-03-29T00:04:03;94707.44;;;5.36;79.64
29239;BME280;16267;48.194;11.546;2024-03-29T00:06:29;94700.94;;;5.41;80.11
29239;BME280;16267;48.194;11.546;2024-03-29T00:08:55;94686.81;;;5.47;80.95
29239;BME280;16267;48.194;11.546;2024-03-29T00:11:20;94683.34;;;5.50;80.65
29239;BME280;16267;48.194;11.546;2024-03-29T00:13:46;94686.72;;;5.54;80.14
29239;BME280;16267;48.194;11.546;2024-03-29T00:16:12;94675.00;;;5.48;80.46
29239;BME280;16267;48.194;11.546;2024-03-29T00:18:38;94667.06;;;5.45;80.60
29239;BME280;16267;48.194;11.546;2024-03-29T00:21:03;94668.56;;;5.46;79.93
29239;BME280;16267;48.194;11.546;2024-03-29T00:23:29;94659.94;;;5.34;80.35
29239;BME280;16267;48.194;11.546;2024-03-29T00:25:55;94662.22;;;5.36;80.30
29239;BME280;16267;48.194;11.546;2024-03-29T00:28:23;94660.66;;;5.39;80.35
29239;BME280;16267;48.194;11.546;2024-03-29T00:30:49;94661.69;;;5.48;79.78
29239;BME280;16267;48.194;11.546;2024-03-29T00:33:15;94652.50;;;5.53;79.98
29239;BME280;16267;48.194;11.546;2024-03-29T00:35:40;94651.72;;;5.56;80.17
29239;BME280;16267;48.194;11.546;2024-03-29T00:38:06;94638.81;;;5.54;80.48
29239;BME280;16267;48.194;11.546;2024-03-29T00:40:32;94646.09;;;5.50;79.64
29239;BME280;16267;48.194;11.546;2024-03-29T00:43:12;94652.19;;;5.47;80.16
29239;BME280;16267;48.194;11.546;2024-03-29T00:45:38;94648.78;;;5.47;80.33
29239;BME280;16267;48.194;11.546;2024-03-29T00:48:04;94652.19;;;5.47;81.52
29239;BME280;16267;48.194;11.546;2024-03-29T00:50:29;94651.03;;;5.48;80.22
29239;BME280;16267;48.194;11.546;2024-03-29T00:52:55;94645.50;;;5.35;80.76
29239;BME280;16267;48.194;11.546;2024-03-29T00:55:21;94647.38;;;5.39;80.64
29239;BME280;16267;48.194;11.546;2024-03-29T00:57:46;94638.28;;;5.36;81.17
29239;BME280;16267;48.194;11.546;2024-03-29T01:00:13;94637.13;;;5.37;81.13
29239;BME280;16267;48.194;11.546;2024-03-29T01:02:39;94640.53;;;5.37;81.64
29239;BME280;16267;48.194;11.546;2024-03-29T01:05:06;94634.44;;;5.41;81.74
29239;BME280;16267;48.194;11.546;2024-03-29T01:07:33;94632.94;;;5.36;81.87
29239;BME280;16267;48.194;11.546;2024-03-29T01:09:58;94629.56;;;5.32;82.85
29239;BME280;16267;48.194;11.546;2024-03-29T01:12:24;94621.75;;;5.21;82.49
29239;BME280;16267;48.194;11.546;2024-03-29T01:14:50;94616.00;;;5.23;82.97
29239;BME280;16267;48.194;11.546;2024-03-29T01:17:16;94600.84;;;5.20;83.75
29239;BME280;16267;48.194;11.546;2024-03-29T01:19:42;94596.56;;;5.29;83.30
29239;BME280;16267;48.194;11.546;2024-03-29T01:22:07;94596.16;;;5.31;83.75
29239;BME280;16267;48.194;11.546;2024-03-29T01:24:33;94580.19;;;5.31;83.64
29239;BME280;16267;48.194;11.546;2024-03-29T01:26:59;94577.69;;;5.17;84.24
29239;BME280;16267;48.194;11.546;2024-03-29T01:29:25;94557.47;;;5.23;83.91
29239;BME280;16267;48.194;11.546;2024-03-29T01:31:51;94565.03;;;5.28;83.97
29239;BME280;16267;48.194;11.546;2024-03-29T01:34:17;94557.91;;;5.21;83.76
29239;BME280;16267;48.194;11.546;2024-03-29T01:36:43;94554.94;;;5.16;84.95
29239;BME280;16267;48.194;11.546;2024-03-29T01:39:09;94547.81;;;5.05;85.22
29239;BME280;16267;48.194;11.546;2024-03-29T01:41:39;94530.09;;;4.95;86.09
29239;BME280;16267;48.194;11.546;2024-03-29T01:44:05;94531.88;;;5.05;85.74
29239;BME280;16267;48.194;11.546;2024-03-29T01:46:31;94529.28;;;4.98;85.03
29239;BME280;16267;48.194;11.546;2024-03-29T01:49:00;94531.16;;;5.01;85.09
29239;BME280;16267;48.194;11.546;2024-03-29T01:51:27;94546.72;;;5.03;85.05
29239;BME280;16267;48.194;11.546;2024-03-29T01:53:54;94549.69;;;5.08;84.28
29239;BME280;16267;48.194;11.546;2024-03-29T01:56:22;94548.75;;;4.91;84.34
29239;BME280;16267;48.194;11.546;2024-03-29T01:58:50;94545.59;;;5.00;84.11
29239;BME280;16267;48.194;11.546;2024-03-29T02:01:19;94544.44;;;5.01;84.02
29239;BME280;16267;48.194;11.546;2024-03-29T02:03:46;94545.16;;;5.05;83.69
29239;BME280;16267;48.194;11.546;2024-03-29T02:06:12;94538.28;;;5.08;83.77
29239;BME280;16267;48.194;11.546;2024-03-29T02:08:39;94541.31;;;5.10;83.36
29239;BME280;16267;48.194;11.546;2024-03-29T02:11:05;94540.09;;;5.14;82.97
29239;BME280;16267;48.194;11.546;2024-03-29T02:13:37;94528.28;;;5.19;82.93
29239;BME280;16267;48.194;11.546;2024-03-29T02:16:03;94526.31;;;5.23;82.35
29239;BME280;16267;48.194;11.546;2024-03-29T02:18:29;94525.16;;;5.24;81.96
29239;BME280;16267;48.194;11.546;2024-03-29T02:20:55;94539.16;;;5.28;81.60
29239;BME280;16267;48.194;11.546;2024-03-29T02:23:27;94530.06;;;5.29;82.08
29239;BME280;16267;48.194;11.546;2024-03-29T02:25:55;94534.25;;;5.27;82.04
29239;BME280;16267;48.194;11.546;2024-03-29T02:28:22;94530.06;;;5.29;81.72
29239;BME280;16267;48.194;11.546;2024-03-29T02:30:50;94535.38;;;5.29;82.04
29239;BME280;16267;48.194;11.546;2024-03-29T02:33:16;94532.75;;;5.26;81.24
29239;BME280;16267;48.194;11.546;2024-03-29T02:35:41;94525.50;;;5.26;81.44
29239;BME280;16267;48.194;11.546;2024-03-29T02:38:07;94526.72;;;5.22;81.69
29239;BME280;16267;48.194;11.546;2024-03-29T02:40:33;94527.53;;;5.19;81.27
29239;BME280;16267;48.194;11.546;2024-03-29T02:42:59;94537.75;;;5.20;81.84
29239;BME280;16267;48.194;11.546;2024-03-29T02:45:24;94528.31;;;5.16;82.49
29239;BME280;16267;48.194;11.546;2024-03-29T02:47:50;94527.97;;;5.13;82.66
29239;BME280;16267;48.194;11.546;2024-03-29T02:50:16;94528.41;;;5.08;82.73
29239;BME280;16267;48.194;11.546;2024-03-29T02:52:46;94520.50;;;5.01;82.50
29239;BME280;16267;48.194;11.546;2024-03-29T02:55:12;94529.59;;;5.04;83.66
29239;BME280;16267;48.194;11.546;2024-03-29T02:57:38;94533.84;;;4.98;84.02
29239;BME280;16267;48.194;11.546;2024-03-29T03:00:08;94534.69;;;4.91;84.95
29239;BME280;16267;48.194;11.546;2024-03-29T03:02:41;94525.19;;;4.94;85.24
29239;BME280;16267;48.194;11.546;2024-03-29T03:05:07;94528.22;;;4.92;85.03
29239;BME280;16267;48.194;11.546;2024-03-29T03:07:35;94524.50;;;4.86;85.64
29239;BME280;16267;48.194;11.546;2024-03-29T03:10:19;94532.44;;;4.89;85.52
29239;BME280;16267;48.194;11.546;2024-03-29T03:13:04;94519.94;;;4.86;86.22
29239;BME280;16267;48.194;11.546;2024-03-29T03:15:30;94511.97;;;4.86;85.96
29239;BME280;16267;48.194;11.546;2024-03-29T03:17:55;94508.25;;;4.80;86.25
29239;BME280;16267;48.194;11.546;2024-03-29T03:20:21;94512.34;;;4.85;86.69
29239;BME280;16267;48.194;11.546;2024-03-29T03:22:50;94505.53;;;4.84;87.17
29239;BME280;16267;48.194;11.546;2024-03-29T03:25:16;94508.91;;;4.88;85.72
29239;BME280;16267;48.194;11.546;2024-03-29T03:27:42;94495.97;;;4.90;85.61
29239;BME280;16267;48.194;11.546;2024-03-29T03:30:08;94491.81;;;4.89;85.78
29239;BME280;16267;48.194;11.546;2024-03-29T03:32:34;94488.78;;;4.87;86.22
29239;BME280;16267;48.194;11.546;2024-03-29T03:35:00;94471.78;;;4.81;86.55
29239;BME280;16267;48.194;11.546;2024-03-29T03:37:26;94467.97;;;4.82;86.56
29239;BME280;16267;48.194;11.546;2024-03-29T03:39:52;94470.34;;;4.73;86.60
29239;BME280;16267;48.194;11.546;2024-03-29T03:42:17;94479.13;;;4.69;86.97
29239;BME280;16267;48.194;11.546;2024-03-29T03:44:43;94472.00;;;4.63;87.23
29239;BME280;16267;48.194;11.546;2024-03-29T03:47:09;94460.97;;;4.64;87.33
29239;BME280;16267;48.194;11.546;2024-03-29T03:49:34;94472.69;;;4.67;87.13
29239;BME280;16267;48.194;11.546;2024-03-29T03:52:00;94475.72;;;4.69;87.09
29239;BME280;16267;48.194;11.546;2024-03-29T03:54:26;94489.31;;;4.75;86.52
29239;BME280;16267;48.194;11.546;2024-03-29T03:56:52;94486.63;;;4.78;86.16
29239;BME280;16267;48.194;11.546;2024-03-29T03:59:17;94483.97;;;4.78;85.93
29239;BME280;16267;48.194;11.546;2024-03-29T04:01:43;94480.50;;;4.81;86.06
29239;BME280;16267;48.194;11.546;2024-03-29T04:04:09;94461.06;;;4.88;85.27
29239;BME280;16267;48.194;11.546;2024-03-29T04:06:35;94455.69;;;4.91;84.96
29239;BME280;16267;48.194;11.546;2024-03-29T04:09:00;94465.28;;;4.82;85.03
29239;BME280;16267;48.194;11.546;2024-03-29T04:11:26;94473.59;;;4.87;84.58
29239;BME280;16267;48.194;11.546;2024-03-29T04:13:52;94484.22;;;4.87;85.21
29239;BME280;16267;48.194;11.546;2024-03-29T04:16:18;94482.09;;;4.75;84.88
29239;BME280;16267;48.194;11.546;2024-03-29T04:18:44;94467.56;;;4.83;85.16
29239;BME280;16267;48.194;11.546;2024-03-29T04:21:09;94463.81;;;4.81;84.71
29239;BME280;16267;48.194;11.546;2024-03-29T04:23:37;94461.81;;;4.88;85.26
29239;BME280;16267;48.194;11.546;2024-03-29T04:26:03;94464.16;;;4.83;84.82
29239;BME280;16267;48.194;11.546;2024-03-29T04:28:29;94459.16;;;4.88;84.75
29239;BME280;16267;48.194;11.546;2024-03-29T04:33:21;94447.00;;;4.87;84.81
29239;BME280;16267;48.194;11.546;2024-03-29T04:35:59;94432.97;;;4.87;85.11
29239;BME280;16267;48.194;11.546;2024-03-29T04:38:28;94427.34;;;4.81;85.38
29239;BME280;16267;48.194;11.546;2024-03-29T04:40:55;94423.13;;;4.84;85.35
29239;BME280;16267;48.194;11.546;2024-03-29T04:43:23;94422.31;;;4.87;84.83
29239;BME280;16267;48.194;11.546;2024-03-29T04:45:50;94417.00;;;4.87;85.25
29239;BME280;16267;48.194;11.546;2024-03-29T04:48:16;94435.22;;;4.88;85.57
29239;BME280;16267;48.194;11.546;2024-03-29T04:50:42;94445.13;;;4.88;85.33
29239;BME280;16267;48.194;11.546;2024-03-29T04:53:08;94458.34;;;4.91;85.17
29239;BME280;16267;48.194;11.546;2024-03-29T04:55:34;94454.19;;;4.90;84.94
29239;BME280;16267;48.194;11.546;2024-03-29T04:58:01;94454.19;;;4.90;84.94
29239;BME280;16267;48.194;11.546;2024-03-29T05:00:27;94456.38;;;4.96;84.86
29239;BME280;16267;48.194;11.546;2024-03-29T05:02:52;94447.97;;;5.01;85.21
29239;BME280;16267;48.194;11.546;2024-03-29T05:05:18;94458.53;;;5.04;84.20
29239;BME280;16267;48.194;11.546;2024-03-29T05:07:44;94468.41;;;5.07;84.41
29239;BME280;16267;48.194;11.546;2024-03-29T05:10:10;94465.03;;;5.03;83.84
29239;BME280;16267;48.194;11.546;2024-03-29T05:12:36;94453.28;;;5.01;84.38
29239;BME280;16267;48.194;11.546;2024-03-29T05:15:02;94468.41;;;5.07;84.07
29239;BME280;16267;48.194;11.546;2024-03-29T05:17:28;94465.31;;;5.09;84.36
29239;BME280;16267;48.194;11.546;2024-03-29T05:19:54;94456.97;;;5.10;84.43
29239;BME280;16267;48.194;11.546;2024-03-29T05:22:20;94449.38;;;5.09;84.03
29239;BME280;16267;48.194;11.546;2024-03-29T05:24:46;94449.78;;;5.07;84.16
29239;BME280;16267;48.194;11.546;2024-03-29T05:27:12;94444.13;;;5.05;84.66
29239;BME280;16267;48.194;11.546;2024-03-29T05:29:39;94441.34;;;5.12;84.67
29239;BME280;16267;48.194;11.546;2024-03-29T05:32:07;94427.28;;;5.12;85.03
29239;BME280;16267;48.194;11.546;2024-03-29T05:34:33;94414.44;;;5.07;85.12
29239;BME280;16267;48.194;11.546;2024-03-29T05:36:58;94421.66;;;5.10;85.55
29239;BME280;16267;48.194;11.546;2024-03-29T05:39:24;94408.28;;;5.13;85.34
29239;BME280;16267;48.194;11.546;2024-03-29T05:41:50;94392.97;;;5.21;85.60
29239;BME280;16267;48.194;11.546;2024-03-29T05:44:16;94393.28;;;5.27;85.06
29239;BME280;16267;48.194;11.546;2024-03-29T05:46:42;94385.31;;;5.23;85.21
29239;BME280;16267;48.194;11.546;2024-03-29T05:49:08;94392.22;;;5.21;84.26
29239;BME280;16267;48.194;11.546;2024-03-29T05:51:34;94386.88;;;5.21;84.66
29239;BME280;16267;48.194;11.546;2024-03-29T05:54:00;94393.00;;;5.18;85.02
29239;BME280;16267;48.194;11.546;2024-03-29T05:56:29;94385.63;;;5.29;84.38
29239;BME280;16267;48.194;11.546;2024-03-29T05:58:55;94392.41;;;5.33;84.35
29239;BME280;16267;48.194;11.546;2024-03-29T06:01:20;94399.41;;;5.47;84.77
29239;BME280;16267;48.194;11.546;2024-03-29T06:03:49;94403.91;;;5.50;84.12
29239;BME280;16267;48.194;11.546;2024-03-29T06:06:17;94411.91;;;5.50;83.27
29239;BME280;16267;48.194;11.546;2024-03-29T06:08:46;94419.50;;;5.52;83.66
29239;BME280;16267;48.194;11.546;2024-03-29T06:11:12;94420.88;;;5.60;83.57
29239;BME280;16267;48.194;11.546;2024-03-29T06:13:37;94427.91;;;5.70;82.73
29239;BME280;16267;48.194;11.546;2024-03-29T06:16:24;94429.25;;;5.58;82.21
29239;BME280;16267;48.194;11.546;2024-03-29T06:19:09;94435.44;;;5.75;82.03
29239;BME280;16267;48.194;11.546;2024-03-29T06:21:35;94439.78;;;5.89;82.72
29239;BME280;16267;48.194;11.546;2024-03-29T06:24:10;94444.84;;;6.07;81.42
29239;BME280;16267;48.194;11.546;2024-03-29T06:26:40;94454.94;;;6.16;80.09
29239;BME280;16267;48.194;11.546;2024-03-29T06:29:07;94452.09;;;6.27;79.04
29239;BME280;16267;48.194;11.546;2024-03-29T06:31:35;94450.94;;;6.47;79.63
29239;BME280;16267;48.194;11.546;2024-03-29T06:34:01;94460.91;;;6.63;79.79
29239;BME280;16267;48.194;11.546;2024-03-29T06:36:27;94455.38;;;6.74;77.61
29239;BME280;16267;48.194;11.546;2024-03-29T06:38:56;94452.88;;;6.83;76.88
29239;BME280;16267;48.194;11.546;2024-03-29T06:41:25;94447.47;;;6.87;75.77
29239;BME280;16267;48.194;11.546;2024-03-29T06:43:51;94431.19;;;7.18;77.27
29239;BME280;16267;48.194;11.546;2024-03-29T06:46:16;94430.63;;;7.43;76.13
29239;BME280;16267;48.194;11.546;2024-03-29T06:48:42;94427.22;;;7.58;75.22
29239;BME280;16267;48.194;11.546;2024-03-29T06:51:08;94433.13;;;7.82;73.61
29239;BME280;16267;48.194;11.546;2024-03-29T06:53:33;94432.13;;;7.93;73.08
29239;BME280;16267;48.194;11.546;2024-03-29T06:56:02;94439.03;;;8.07;70.07
29239;BME280;16267;48.194;11.546;2024-03-29T06:58:28;94436.06;;;8.17;70.28
29239;BME280;16267;48.194;11.546;2024-03-29T07:00:54;94442.66;;;8.29;71.14
29239;BME280;16267;48.194;11.546;2024-03-29T07:03:20;94431.84;;;8.49;69.65
29239;BME280;16267;48.194;11.546;2024-03-29T07:05:46;94432.94;;;8.64;69.87
29239;BME280;16267;48.194;11.546;2024-03-29T07:08:12;94420.13;;;8.72;65.70
29239;BME280;16267;48.194;11.546;2024-03-29T07:10:38;94417.13;;;8.83;65.94
29239;BME280;16267;48.194;11.546;2024-03-29T07:13:06;94415.44;;;8.89;64.89
29239;BME280;16267;48.194;11.546;2024-03-29T07:15:32;94413.97;;;9.01;64.83
29239;BME280;16267;48.194;11.546;2024-03-29T07:17:58;94417.91;;;9.22;67.06
29239;BME280;16267;48.194;11.546;2024-03-29T07:20:25;94414.91;;;9.32;64.83
29239;BME280;16267;48.194;11.546;2024-03-29T07:22:51;94413.06;;;9.42;65.02
29239;BME280;16267;48.194;11.546;2024-03-29T07:25:17;94409.72;;;9.64;66.07
29239;BME280;16267;48.194;11.546;2024-03-29T07:27:42;94405.22;;;9.73;64.10
29239;BME280;16267;48.194;11.546;2024-03-29T07:30:09;94393.84;;;9.82;63.29
29239;BME280;16267;48.194;11.546;2024-03-29T07:32:37;94400.69;;;9.83;60.10
29239;BME280;16267;48.194;11.546;2024-03-29T07:35:03;94400.78;;;9.92;61.07
29239;BME280;16267;48.194;11.546;2024-03-29T07:37:29;94391.69;;;10.12;61.07
29239;BME280;16267;48.194;11.546;2024-03-29T07:39:55;94397.31;;;10.26;59.95
29239;BME280;16267;48.194;11.546;2024-03-29T07:42:21;94408.94;;;10.45;59.01
29239;BME280;16267;48.194;11.546;2024-03-29T07:44:47;94409.19;;;10.60;59.97
29239;BME280;16267;48.194;11.546;2024-03-29T07:47:13;94428.59;;;10.64;58.33
29239;BME280;16267;48.194;11.546;2024-03-29T07:49:40;94433.28;;;10.73;57.56
29239;BME280;16267;48.194;11.546;2024-03-29T07:52:06;94430.09;;;10.97;58.22
29239;BME280;16267;48.194;11.546;2024-03-29T07:54:34;94440.03;;;11.09;58.16
29239;BME280;16267;48.194;11.546;2024-03-29T07:57:00;94437.97;;;11.22;56.09
29239;BME280;16267;48.194;11.546;2024-03-29T07:59:27;94434.16;;;11.42;57.05
29239;BME280;16267;48.194;11.546;2024-03-29T08:01:53;94446.78;;;11.63;56.15
29239;BME280;16267;48.194;11.546;2024-03-29T08:04:20;94447.19;;;11.93;53.83
29239;BME280;16267;48.194;11.546;2024-03-29T08:06:46;94442.28;;;12.19;54.75
29239;BME280;16267;48.194;11.546;2024-03-29T08:09:12;94443.66;;;12.42;53.50
29239;BME280;16267;48.194;11.546;2024-03-29T08:11:40;94444.94;;;12.74;51.23
29239;BME280;16267;48.194;11.546;2024-03-29T08:14:06;94445.66;;;12.93;51.31
29239;BME280;16267;48.194;11.546;2024-03-29T08:16:32;94442.47;;;13.13;50.29
29239;BME280;16267;48.194;11.546;2024-03-29T08:18:57;94429.72;;;13.23;49.49
29239;BME280;16267;48.194;11.546;2024-03-29T08:21:24;94424.16;;;13.35;49.30
29239;BME280;16267;48.194;11.546;2024-03-29T08:23:53;94422.63;;;13.44;48.73
29239;BME280;16267;48.194;11.546;2024-03-29T08:26:21;94417.16;;;13.62;50.12
29239;BME280;16267;48.194;11.546;2024-03-29T08:28:47;94415.72;;;13.76;49.43
29239;BME280;16267;48.194;11.546;2024-03-29T08:31:12;94416.28;;;13.80;48.86
29239;BME280;16267;48.194;11.546;2024-03-29T08:33:38;94410.75;;;13.83;48.19
29239;BME280;16267;48.194;11.546;2024-03-29T08:36:06;94408.16;;;13.89;48.05
29239;BME280;16267;48.194;11.546;2024-03-29T08:38:34;94413.97;;;13.97;47.25
29239;BME280;16267;48.194;11.546;2024-03-29T08:41:00;94404.63;;;14.22;49.35
29239;BME280;16267;48.194;11.546;2024-03-29T08:43:26;94416.81;;;14.56;49.01
29239;BME280;16267;48.194;11.546;2024-03-29T08:45:52;94403.78;;;14.84;48.38
29239;BME280;16267;48.194;11.546;2024-03-29T08:48:18;94405.91;;;15.10;46.52
29239;BME280;16267;48.194;11.546;2024-03-29T08:50:44;94404.78;;;15.31;46.13
29239;BME280;16267;48.194;11.546;2024-03-29T08:53:10;94392.75;;;15.32;46.19
29239;BME280;16267;48.194;11.546;2024-03-29T08:55:36;94401.97;;;15.40;45.21
29239;BME280;16267;48.194;11.546;2024-03-29T08:58:03;94395.63;;;15.44;45.99
29239;BME280;16267;48.194;11.546;2024-03-29T09:00:30;94398.88;;;15.48;46.27
29239;BME280;16267;48.194;11.546;2024-03-29T09:02:56;94403.06;;;15.49;44.64
29239;BME280;16267;48.194;11.546;2024-03-29T09:05:22;94414.53;;;15.58;45.48
29239;BME280;16267;48.194;11.546;2024-03-29T09:07:49;94414.97;;;15.72;44.97
29239;BME280;16267;48.194;11.546;2024-03-29T09:10:15;94418.84;;;15.86;45.55
29239;BME280;16267;48.194;11.546;2024-03-29T09:12:42;94408.16;;;15.97;45.21
29239;BME280;16267;48.194;11.546;2024-03-29T09:15:08;94404.09;;;16.07;45.13
29239;BME280;16267;48.194;11.546;2024-03-29T09:17:42;94395.91;;;16.22;44.86
29239;BME280;16267;48.194;11.546;2024-03-29T09:20:09;94409.34;;;16.37;44.67
29239;BME280;16267;48.194;11.546;2024-03-29T09:22:35;94410.91;;;16.43;42.95
29239;BME280;16267;48.194;11.546;2024-03-29T09:25:01;94407.50;;;16.48;42.65
29239;BME280;16267;48.194;11.546;2024-03-29T09:27:29;94392.38;;;16.62;42.62
29239;BME280;16267;48.194;11.546;2024-03-29T09:29:55;94391.75;;;16.73;44.56
29239;BME280;16267;48.194;11.546;2024-03-29T09:32:22;94395.59;;;16.87;45.39
29239;BME280;16267;48.194;11.546;2024-03-29T09:34:48;94387.31;;;16.96;45.59
29239;BME280;16267;48.194;11.546;2024-03-29T09:37:14;94392.78;;;17.02;45.33
29239;BME280;16267;48.194;11.546;2024-03-29T09:39:40;94395.56;;;17.13;46.24
29239;BME280;16267;48.194;11.546;2024-03-29T09:42:07;94396.59;;;17.15;46.05
29239;BME280;16267;48.194;11.546;2024-03-29T09:44:35;94390.22;;;17.24;46.24
29239;BME280;16267;48.194;11.546;2024-03-29T09:47:05;94395.25;;;17.37;46.88
29239;BME280;16267;48.194;11.546;2024-03-29T09:49:33;94399.28;;;17.53;47.17
29239;BME280;16267;48.194;11.546;2024-03-29T09:52:00;94402.31;;;17.60;45.53
29239;BME280;16267;48.194;11.546;2024-03-29T09:54:29;94398.63;;;17.64;45.46
29239;BME280;16267;48.194;11.546;2024-03-29T09:56:57;94396.44;;;17.73;45.49
29239;BME280;16267;48.194;11.546;2024-03-29T09:59:26;94393.06;;;17.84;46.49
29239;BME280;16267;48.194;11.546;2024-03-29T10:01:55;94406.69;;;17.90;45.72
29239;BME280;16267;48.194;11.546;2024-03-29T10:04:23;94396.34;;;17.94;45.29
29239;BME280;16267;48.194;11.546;2024-03-29T10:06:50;94402.28;;;17.98;46.42
29239;BME280;16267;48.194;11.546;2024-03-29T10:09:18;94403.28;;;18.00;46.17
29239;BME280;16267;48.194;11.546;2024-03-29T10:11:45;94399.59;;;18.03;46.54
29239;BME280;16267;48.194;11.546;2024-03-29T10:14:11;94392.44;;;18.06;47.04
29239;BME280;16267;48.194;11.546;2024-03-29T10:16:37;94403.09;;;18.10;47.54
29239;BME280;16267;48.194;11.546;2024-03-29T10:19:04;94400.09;;;18.02;46.72
29239;BME280;16267;48.194;11.546;2024-03-29T10:21:30;94405.00;;;17.98;47.20
29239;BME280;16267;48.194;11.546;2024-03-29T10:23:57;94408.72;;;18.06;46.91
29239;BME280;16267;48.194;11.546;2024-03-29T10:26:22;94395.69;;;18.10;47.34
29239;BME280;16267;48.194;11.546;2024-03-29T10:28:48;94396.88;;;18.09;46.85
29239;BME280;16267;48.194;11.546;2024-03-29T10:31:15;94390.03;;;18.19;47.50
29239;BME280;16267;48.194;11.546;2024-03-29T10:33:43;94389.81;;;18.28;46.77
29239;BME280;16267;48.194;11.546;2024-03-29T10:36:14;94387.63;;;18.38;47.99
29239;BME280;16267;48.194;11.546;2024-03-29T10:38:40;94385.41;;;18.42;46.84
29239;BME280;16267;48.194;11.546;2024-03-29T10:41:07;94375.81;;;18.53;46.83
29239;BME280;16267;48.194;11.546;2024-03-29T10:43:34;94381.75;;;18.62;46.59
29239;BME280;16267;48.194;11.546;2024-03-29T10:46:00;94372.63;;;18.71;46.12
29239;BME280;16267;48.194;11.546;2024-03-29T10:48:27;94373.63;;;18.73;45.75
29239;BME280;16267;48.194;11.546;2024-03-29T10:50:58;94375.88;;;18.81;44.64
29239;BME280;16267;48.194;11.546;2024-03-29T10:53:26;94374.16;;;18.89;43.43
29239;BME280;16267;48.194;11.546;2024-03-29T10:55:54;94363.00;;;19.04;44.33
29239;BME280;16267;48.194;11.546;2024-03-29T10:58:22;94358.34;;;19.15;45.85
29239;BME280;16267;48.194;11.546;2024-03-29T11:00:56;94359.31;;;19.24;43.76
29239;BME280;16267;48.194;11.546;2024-03-29T11:03:45;94352.88;;;19.32;39.02
29239;BME280;16267;48.194;11.546;2024-03-29T11:06:16;94350.16;;;19.32;36.98
29239;BME280;16267;48.194;11.546;2024-03-29T11:08:44;94347.44;;;19.32;35.94
29239;BME280;16267;48.194;11.546;2024-03-29T11:11:13;94341.47;;;19.39;36.55
29239;BME280;16267;48.194;11.546;2024-03-29T11:14:06;94350.88;;;19.44;35.32
29239;BME280;16267;48.194;11.546;2024-03-29T11:16:33;94351.13;;;19.46;36.23
29239;BME280;16267;48.194;11.546;2024-03-29T11:18:59;94341.44;;;19.56;36.47
29239;BME280;16267;48.194;11.546;2024-03-29T11:21:30;94340.94;;;19.64;36.09
29239;BME280;16267;48.194;11.546;2024-03-29T11:23:57;94344.66;;;19.72;36.58
29239;BME280;16267;48.194;11.546;2024-03-29T11:26:26;94341.66;;;19.81;34.73
29239;BME280;16267;48.194;11.546;2024-03-29T11:28:53;94336.94;;;19.87;37.87
29239;BME280;16267;48.194;11.546;2024-03-29T11:31:24;94340.88;;;19.92;34.82
29239;BME280;16267;48.194;11.546;2024-03-29T11:33:50;94336.19;;;19.87;34.15
29239;BME280;16267;48.194;11.546;2024-03-29T11:38:45;94342.84;;;19.91;34.31
29239;BME280;16267;48.194;11.546;2024-03-29T11:43:44;94336.59;;;20.08;34.55
29239;BME280;16267;48.194;11.546;2024-03-29T11:46:12;94332.84;;;20.16;34.43
29239;BME280;16267;48.194;11.546;2024-03-29T11:48:39;94336.06;;;20.20;34.21
29239;BME280;16267;48.194;11.546;2024-03-29T11:51:10;94335.53;;;20.22;34.15
29239;BME280;16267;48.194;11.546;2024-03-29T11:53:37;94331.56;;;20.28;34.26
29239;BME280;16267;48.194;11.546;2024-03-29T11:56:03;94319.66;;;20.32;33.56
29239;BME280;16267;48.194;11.546;2024-03-29T11:58:31;94322.78;;;20.41;33.86
29239;BME280;16267;48.194;11.546;2024-03-29T12:00:58;94320.78;;;20.47;33.62
29239;BME280;16267;48.194;11.546;2024-03-29T12:03:38;94325.72;;;20.55;34.23
29239;BME280;16267;48.194;11.546;2024-03-29T12:06:05;94321.25;;;20.57;34.21
29239;BME280;16267;48.194;11.546;2024-03-29T12:08:39;94321.19;;;20.63;33.48
29239;BME280;16267;48.194;11.546;2024-03-29T12:11:06;94317.97;;;20.64;33.70
29239;BME280;16267;48.194;11.546;2024-03-29T12:13:32;94312.75;;;20.66;33.22
29239;BME280;16267;48.194;11.546;2024-03-29T12:16:00;94312.47;;;20.70;33.52
29239;BME280;16267;48.194;11.546;2024-03-29T12:18:27;94310.22;;;20.74;32.97
29239;BME280;16267;48.194;11.546;2024-03-29T12:20:57;94311.16;;;20.82;32.37
29239;BME280;16267;48.194;11.546;2024-03-29T12:23:23;94305.78;;;21.01;34.36
29239;BME280;16267;48.194;11.546;2024-03-29T12:25:53;94298.47;;;21.15;33.91
29239;BME280;16267;48.194;11.546;2024-03-29T12:28:21;94294.03;;;21.36;34.77
29239;BME280;16267;48.194;11.546;2024-03-29T12:30:48;94285.78;;;21.48;34.86
29239;BME280;16267;48.194;11.546;2024-03-29T12:33:19;94281.31;;;21.45;31.27
29239;BME280;16267;48.194;11.546;2024-03-29T12:35:51;94287.00;;;21.47;32.27
29239;BME280;16267;48.194;11.546;2024-03-29T12:38:22;94270.34;;;21.50;32.23
29239;BME280;16267;48.194;11.546;2024-03-29T12:40:49;94272.81;;;21.54;32.32
29239;BME280;16267;48.194;11.546;2024-03-29T12:43:21;94273.00;;;21.56;31.93
29239;BME280;16267;48.194;11.546;2024-03-29T12:45:49;94268.19;;;21.68;32.25
29239;BME280;16267;48.194;11.546;2024-03-29T12:48:18;94264.66;;;21.73;31.84
29239;BME280;16267;48.194;11.546;2024-03-29T12:50:46;94258.34;;;21.78;31.98
29239;BME280;16267;48.194;11.546;2024-03-29T12:53:14;94253.34;;;21.82;30.82
29239;BME280;16267;48.194;11.546;2024-03-29T12:55:42;94239.63;;;21.88;31.82
29239;BME280;16267;48.194;11.546;2024-03-29T12:58:20;94247.44;;;21.97;31.47
29239;BME280;16267;48.194;11.546;2024-03-29T13:00:47;94244.88;;;22.04;30.39
29239;BME280;16267;48.194;11.546;2024-03-29T13:03:13;94229.22;;;22.05;31.89